Details From EGNS - Isle Of Man Ronaldsway
To EKAH - Aarhus
Flight Number -
Tags decoded
Created
Modified
Stats Distance 538 nm / 997 km
Max Altitude 0 ft / 0 m
Waypoints 2
Social Downloads 0
Likes 0
Share VATSIM

Download

Looking for another format? Having issues loading an existing format? Contact us
Advertisement - Login to hide

Notes

Requested: EGNS LBV EKAH

Route

EGNS EKAH

ID Type Via Altitude Latitude Longitude Leg Dist Tot Dist Heading (true) Name
O EGNS APT - 0 ft / 0 m 54.08283˚ -4.62548˚ - 0 nm - Isle Of Man Ronaldsway
O EKAH APT - 0 ft / 0 m 56.30426˚ 10.61945˚ 538 nm 538 nm 69° / 82° Aarhus

Altitude Profile

Advertisement - Login to hide

Weather


0- 5 10 15 20 25 30 35+ Temperature / ° C

Clouds and Precipitation
Forecast for 2018-05-23 18:00 UTC. Updated 2 hours ago

Ground ~20,000 ft ~40,000 ft Winds

EGNS

Details ICAO EGNS (IOM)
Name Isle Of Man Ronaldsway
Region United Kingdom
Timezone Europe/Isle_of_Man (UTC+1.0)
Stats Elevation 52 ft / 16 m (AMSL)
Location 54.082833° -4.625475°
Runways 2
Magnetic Variation 2.416° W

METAR

EGNS 231920Z 05005KT 020V080 CAVOK 16/09 Q1024 NOSIG

Decode

TAF

Not found

Departure Runways

ID Width Length Bearing (true) Bearing (mag) Surface Threshold Offset Overrun Length
03 151 ft / 46 m 4,113 ft / 1,254 m 27.91° 30.33° Asphalt 492 ft / 150 m 0 ft / 0 m
08 151 ft / 46 m 6,016 ft / 1,834 m 77.93° 80.35° Asphalt 545 ft / 166 m 0 ft / 0 m
21 151 ft / 46 m 4,113 ft / 1,254 m 207.92° 210.34° Asphalt 0 ft / 0 m 0 ft / 0 m
26 151 ft / 46 m 6,016 ft / 1,834 m 257.95° 260.37° Asphalt 486 ft / 148 m 0 ft / 0 m

EKAH

Details ICAO EKAH (AAR)
Name Aarhus
Region Denmark / Faroe Islands
Timezone Europe/Copenhagen (UTC+2.0)
Stats Elevation 82 ft / 25 m (AMSL)
Location 56.304265° 10.619452°
Runways 2
Magnetic Variation 3.118° E

METAR

EKAH 231920Z AUTO 02002KT 9999NDV NCD 19/08 Q1027

Decode

TAF

TAF EKAH 231704Z 2318/2418 05005KT CAVOK

Decode

Destination Runways

ID Width Length Bearing (true) Bearing (mag) Surface Threshold Offset Overrun Length
10L 75 ft / 23 m 9,081 ft / 2,768 m 100.30° 97.18° Asphalt 0 ft / 0 m 0 ft / 0 m
10R 148 ft / 45 m 8,837 ft / 2,693 m 100.29° 97.17° Asphalt 0 ft / 0 m 902 ft / 275 m
28L 148 ft / 45 m 8,837 ft / 2,693 m 280.33° 277.21° Asphalt 0 ft / 0 m 738 ft / 225 m
28R 75 ft / 23 m 9,081 ft / 2,768 m 280.34° 277.22° Asphalt 0 ft / 0 m 0 ft / 0 m

Approach Navaids

Runway Type Ident Frequency Range Bearing (true) Bearing (mag) Slope Elevation
10R Localiser AAR 111.90 MHz 18 nm / 33 km 100.33° 97.21° - 82 ft / 25 m (AMSL)
10R Glidescope AAR 111.90 MHz 10 nm / 19 km 100.31° 97.19° 2.75° 82 ft / 25 m (AMSL)
28L Localiser TR 111.10 MHz 18 nm / 33 km 280.29° 277.17° - 82 ft / 25 m (AMSL)
28L Glidescope TR 111.10 MHz 10 nm / 19 km 280.31° 277.19° 2.75° 82 ft / 25 m (AMSL)
28L DME TR 111.10 MHz 18 nm / 33 km - - - 79 ft / 24 m (AMSL)